Time;durP1;ratioP1;P1;durP2;ratioP2;P2;SDS_P1;SDS_P2;PMS_P1;PMS_P2;Temp;Humidity;BMP_temperature;BMP_pressure;BME280_temperature;BME280_humidity;BME280_pressure;Samples;Min_cycle;Max_cycle;Signal;HPM_P1;HPM_P2
2021/09/09 03:24:24;;;;;;;;;;;;;;;14.57;74.18;100205.34;5069106;28;1264;-58
2021/09/09 03:26:51;;;;;;;;;;;;;;;14.58;74.25;100209.72;5071110;28;818;-58
2021/09/09 03:29:17;;;;;;;;;;;;;;;14.63;74.11;100215.56;5071062;28;874;-58
2021/09/09 03:31:43;;;;;;;;;;;;;;;14.72;73.98;100215.03;5071101;28;838;-58
2021/09/09 03:34:10;;;;;;;;;;;;;;;14.74;73.69;100215.41;5071349;28;860;-58
2021/09/09 03:48:52;;;;;;;;;;;;;;;14.74;73.66;100207.06;5075071;28;612;-58
2021/09/09 03:51:18;;;;;;;;;;;;;;;14.72;73.70;100209.47;5074600;28;802;-58
2021/09/09 03:53:45;;;;;;;;;;;;;;;14.73;73.94;100207.50;5074527;28;830;-58
2021/09/09 03:56:13;;;;;;;;;;;;;;;14.75;73.82;100217.00;5056584;28;1243;-58
2021/09/09 04:10:50;;;;;;;;;;;;;;;14.69;73.97;100210.34;5074673;28;629;-58
2021/09/09 04:25:28;;;;;;;;;;;;;;;14.73;73.96;100210.28;5071648;28;1158;-58
2021/09/09 04:27:55;;;;;;;;;;;;;;;14.76;73.84;100201.88;5074045;28;830;-58
2021/09/09 04:42:33;;;;;;;;;;;;;;;15.13;72.65;100196.50;5074236;28;1902;-58
2021/09/09 04:51:32;;;;;;;;;;;;;;;15.27;72.03;100197.03;5073599;28;668;-58
2021/09/09 04:53:58;;;;;;;;;;;;;;;15.32;71.89;100195.78;5072980;28;850;-58
2021/09/09 04:56:25;;;;;;;;;;;;;;;15.37;71.84;100194.50;5073422;28;878;-58
2021/09/09 04:58:52;;;;;;;;;;;;;;;15.43;71.38;100195.59;5073388;28;885;-58
2021/09/09 05:01:20;;;;;;;;;;;;;;;15.46;71.02;100191.94;5073384;28;835;-58
2021/09/09 05:30:13;;;;;;;;;;;;;;;16.11;69.27;100191.47;5052941;28;845;-58
2021/09/09 05:32:46;;;;;;;;;;;;;;;16.32;69.04;100190.19;5052830;28;814;-58
2021/09/09 05:35:25;;;;;;;;;;;;;;;16.59;68.00;100186.44;5052752;28;814;-58
2021/09/09 05:37:52;;;;;;;;;;;;;;;17.02;66.87;100182.63;5052814;28;901;-59
2021/09/09 05:40:19;;;;;;;;;;;;;;;17.37;65.54;100177.31;5052683;28;810;-58
2021/09/09 05:42:46;;;;;;;;;;;;;;;17.63;64.72;100184.59;5052497;28;1979;-59
2021/09/09 05:45:15;;;;;;;;;;;;;;;17.83;63.79;100178.84;5052536;28;810;-59
2021/09/09 05:47:41;;;;;;;;;;;;;;;18.12;63.00;100178.03;5052515;28;897;-59
2021/09/09 05:50:08;;;;;;;;;;;;;;;18.63;61.30;100174.47;5052490;28;846;-59
2021/09/09 05:52:34;;;;;;;;;;;;;;;19.04;60.39;100169.94;5052396;28;837;-59
2021/09/09 05:55:00;;;;;;;;;;;;;;;19.31;59.29;100172.19;5052496;28;814;-58
2021/09/09 06:00:31;;;;;;;;;;;;;;;20.08;56.93;100163.41;5052333;28;621;-59
2021/09/09 06:03:00;;;;;;;;;;;;;;;20.08;56.84;100169.03;5052207;28;1898;-59
2021/09/09 06:05:28;;;;;;;;;;;;;;;19.30;58.81;100167.84;5033269;28;1296;-59
2021/09/09 06:10:58;;;;;;;;;;;;;;;19.05;60.13;100157.50;5052164;28;551;-59
2021/09/09 06:26:10;;;;;;;;;;;;;;;22.34;50.42;100190.41;5051189;28;1319;-59
2021/09/09 06:28:37;;;;;;;;;;;;;;;22.69;49.20;100185.09;5051943;28;818;-59
2021/09/09 06:31:04;;;;;;;;;;;;;;;22.99;48.80;100185.25;5051760;28;850;-59
2021/09/09 06:33:30;;;;;;;;;;;;;;;23.21;47.79;100188.59;5051751;28;892;-59
2021/09/09 06:35:57;;;;;;;;;;;;;;;23.45;47.45;100193.41;5051738;28;799;-59
2021/09/09 06:38:26;;;;;;;;;;;;;;;23.73;46.70;100190.34;5051603;28;783;-59
2021/09/09 06:40:53;;;;;;;;;;;;;;;23.77;46.36;100196.59;5051651;28;897;-59
2021/09/09 06:43:20;;;;;;;;;;;;;;;23.82;46.19;100193.88;5051717;28;1911;-59
2021/09/09 06:45:46;;;;;;;;;;;;;;;24.04;45.78;100187.84;5051475;28;779;-59
2021/09/09 06:48:14;;;;;;;;;;;;;;;24.42;44.69;100191.81;5051861;28;858;-59
2021/09/09 06:50:40;;;;;;;;;;;;;;;24.95;43.25;100195.72;5051485;28;834;-59
2021/09/09 06:53:07;;;;;;;;;;;;;;;25.12;42.56;100192.34;5051421;28;841;-59
2021/09/09 06:55:33;;;;;;;;;;;;;;;25.33;43.01;100191.09;5051441;28;842;-59
2021/09/09 06:58:01;;;;;;;;;;;;;;;25.24;41.36;100188.38;5051452;28;913;-59
2021/09/09 07:00:30;;;;;;;;;;;;;;;23.92;44.29;100194.59;5051377;28;873;-59
2021/09/09 07:05:59;;;;;;;;;;;;;;;23.05;45.24;100199.50;5051452;28;617;-59
2021/09/09 07:20:37;;;;;;;;;;;;;;;24.99;40.75;100195.50;5055700;28;608;-59
2021/09/09 07:23:04;;;;;;;;;;;;;;;25.84;38.96;100203.75;5055183;28;1897;-59
2021/09/09 07:25:31;;;;;;;;;;;;;;;26.39;37.91;100204.00;5028515;28;1333;-59
2021/09/09 07:30:59;;;;;;;;;;;;;;;26.04;37.65;100197.25;5035208;28;625;-59
2021/09/09 07:36:28;;;;;;;;;;;;;;;25.51;38.53;100192.81;5035049;28;1258;-59
2021/09/09 07:38:55;;;;;;;;;;;;;;;25.91;38.56;100196.13;5035035;28;846;-59
2021/09/09 07:41:23;;;;;;;;;;;;;;;26.27;36.94;100209.56;5034943;28;811;-59
2021/09/09 07:43:49;;;;;;;;;;;;;;;26.56;37.20;100193.56;5017014;28;1918;-59
2021/09/09 07:46:16;;;;;;;;;;;;;;;26.98;36.37;100197.72;5034775;28;915;-59
2021/09/09 07:48:42;;;;;;;;;;;;;;;27.25;36.38;100201.22;5034896;28;787;-59
2021/09/09 07:51:09;;;;;;;;;;;;;;;27.32;35.54;100202.81;5034733;28;882;-59
2021/09/09 07:53:37;;;;;;;;;;;;;;;27.12;35.87;100212.22;5034776;28;786;-59
2021/09/09 07:56:06;;;;;;;;;;;;;;;26.85;35.77;100208.72;5034553;28;965;-59
2021/09/09 07:58:33;;;;;;;;;;;;;;;26.43;37.14;100205.31;5034866;28;818;-59
2021/09/09 08:00:59;;;;;;;;;;;;;;;26.55;37.64;100203.34;5016777;28;1402;-59
2021/09/09 08:03:26;;;;;;;;;;;;;;;27.15;36.61;100208.38;5034520;28;2245;-59
2021/09/09 08:05:53;;;;;;;;;;;;;;;26.68;36.31;100197.28;5016849;28;1532;-59
2021/09/09 08:08:20;;;;;;;;;;;;;;;25.98;37.92;100193.59;5034403;28;854;-59
2021/09/09 08:10:47;;;;;;;;;;;;;;;25.60;38.63;100203.22;5034448;28;909;-59
2021/09/09 08:13:14;;;;;;;;;;;;;;;26.09;38.42;100195.75;5034273;28;810;-59
2021/09/09 08:15:41;;;;;;;;;;;;;;;26.55;38.13;100205.41;5016659;28;1229;-59
2021/09/09 08:18:07;;;;;;;;;;;;;;;27.51;36.19;100197.44;5034294;28;842;-59
2021/09/09 08:20:34;;;;;;;;;;;;;;;27.64;34.39;100200.56;5034235;28;822;-59
2021/09/09 08:23:03;;;;;;;;;;;;;;;26.70;35.43;100211.72;5034162;28;1961;-59
2021/09/09 08:25:30;;;;;;;;;;;;;;;25.49;38.44;100205.94;5024506;28;1403;-59
2021/09/09 08:27:56;;;;;;;;;;;;;;;24.26;40.22;100206.47;5053564;28;867;-59
2021/09/09 08:30:23;;;;;;;;;;;;;;;24.05;41.59;100205.59;5053485;28;803;-59
2021/09/09 08:35:52;;;;;;;;;;;;;;;23.90;41.54;100196.31;5053920;28;636;-59
2021/09/09 08:38:18;;;;;;;;;;;;;;;23.75;42.60;100204.75;5035966;28;1319;-59
2021/09/09 08:40:49;;;;;;;;;;;;;;;23.51;43.08;100197.09;5053749;28;901;-59
2021/09/09 08:43:19;;;;;;;;;;;;;;;23.33;42.66;100192.41;5053622;28;1913;-59
2021/09/09 08:45:51;;;;;;;;;;;;;;;23.42;42.66;100186.69;5054009;28;830;-59
2021/09/09 08:48:17;;;;;;;;;;;;;;;23.68;42.70;100191.03;5053676;28;849;-59
2021/09/09 08:50:44;;;;;;;;;;;;;;;23.68;42.51;100174.84;5053617;28;897;-59
2021/09/09 08:53:14;;;;;;;;;;;;;;;23.72;42.51;100183.91;5053554;28;826;-59
2021/09/09 08:55:43;;;;;;;;;;;;;;;23.86;42.66;100171.13;5053517;28;874;-59
2021/09/09 08:58:10;;;;;;;;;;;;;;;24.30;41.30;100172.34;5053572;28;811;-59
2021/09/09 09:00:37;;;;;;;;;;;;;;;25.69;38.94;100177.59;5054163;28;795;-59
2021/09/09 09:03:03;;;;;;;;;;;;;;;26.64;36.90;100162.72;5053634;28;1890;-59
2021/09/09 09:05:37;;;;;;;;;;;;;;;27.23;34.52;100173.34;5053333;28;830;-59
2021/09/09 09:08:04;;;;;;;;;;;;;;;26.99;34.68;100172.94;5053504;28;838;-59
2021/09/09 09:10:31;;;;;;;;;;;;;;;27.07;34.69;100171.97;5053205;28;889;-59
2021/09/09 09:12:58;;;;;;;;;;;;;;;27.28;35.56;100175.44;5053144;28;810;-59
2021/09/09 09:15:29;;;;;;;;;;;;;;;27.26;34.43;100160.97;5053294;28;983;-59
2021/09/09 09:18:04;;;;;;;;;;;;;;;26.76;35.49;100184.19;5053228;28;889;-59
2021/09/09 09:20:39;;;;;;;;;;;;;;;26.28;35.72;100167.84;5053006;28;865;-59
2021/09/09 09:36:11;;;;;;;;;;;;;;;24.95;38.54;100150.47;5052319;28;1411;-59
2021/09/09 09:38:37;;;;;;;;;;;;;;;25.05;37.46;100157.56;5052704;28;798;-59
2021/09/09 09:41:04;;;;;;;;;;;;;;;25.23;37.50;100153.69;5052359;28;833;-59
2021/09/09 09:43:31;;;;;;;;;;;;;;;25.36;37.55;100156.13;5052553;28;1977;-59
2021/09/09 09:45:59;;;;;;;;;;;;;;;25.42;37.64;100147.72;5052495;28;1097;-59
2021/09/09 09:48:27;;;;;;;;;;;;;;;25.78;36.96;100145.53;5052610;28;802;-59
2021/09/09 09:50:53;;;;;;;;;;;;;;;26.07;36.49;100142.47;5052474;28;849;-59
2021/09/09 09:53:21;;;;;;;;;;;;;;;26.61;35.42;100144.66;5052472;28;881;-59
2021/09/09 10:08:01;;;;;;;;;;;;;;;26.39;34.87;100135.97;5052498;28;605;-59
2021/09/09 10:10:28;;;;;;;;;;;;;;;25.89;36.34;100134.31;5052141;28;854;-59
2021/09/09 10:12:56;;;;;;;;;;;;;;;25.49;36.96;100127.47;5034107;28;1386;-59
2021/09/09 10:27:41;;;;;;;;;;;;;;;25.37;38.52;100111.63;5052139;28;672;-59
2021/09/09 10:30:16;;;;;;;;;;;;;;;25.61;37.39;100120.66;5051825;28;838;-59
2021/09/09 10:32:50;;;;;;;;;;;;;;;25.45;37.62;100116.38;5051780;28;795;-59
2021/09/09 10:35:26;;;;;;;;;;;;;;;25.31;37.40;100114.44;5051534;28;1429;-59
2021/09/09 10:37:54;;;;;;;;;;;;;;;25.57;37.22;100099.50;5033804;28;1473;-59
2021/09/09 10:40:40;;;;;;;;;;;;;;;25.89;35.67;100099.56;5051801;28;799;-59
2021/09/09 10:43:11;;;;;;;;;;;;;;;25.83;36.05;100100.25;5032117;28;1918;-59
2021/09/09 10:45:40;;;;;;;;;;;;;;;26.05;35.05;100107.41;5051822;28;869;-59
2021/09/09 10:48:18;;;;;;;;;;;;;;;26.04;35.04;100100.19;5051707;28;818;-59
2021/09/09 10:51:02;;;;;;;;;;;;;;;26.23;35.27;100098.53;5051526;28;869;-59
2021/09/09 11:05:39;;;;;;;;;;;;;;;26.53;34.28;100095.38;5051739;28;652;-59
2021/09/09 11:08:05;;;;;;;;;;;;;;;26.28;34.07;100091.34;5051628;28;790;-60
2021/09/09 11:10:40;;;;;;;;;;;;;;;26.09;35.35;100090.97;5051515;28;814;-59
2021/09/09 11:13:22;;;;;;;;;;;;;;;26.08;35.87;100087.34;5051360;28;865;-59
2021/09/09 11:15:49;;;;;;;;;;;;;;;26.57;35.59;100084.59;5051540;28;955;-59
2021/09/09 11:18:23;;;;;;;;;;;;;;;27.29;34.76;100085.44;5051333;28;826;-59
2021/09/09 11:20:59;;;;;;;;;;;;;;;27.57;33.81;100090.34;5051210;28;802;-59
2021/09/09 11:23:26;;;;;;;;;;;;;;;27.40;33.92;100088.28;5051456;28;1894;-59
2021/09/09 11:25:52;;;;;;;;;;;;;;;27.09;34.62;100084.28;5051863;28;822;-59
2021/09/09 11:28:19;;;;;;;;;;;;;;;26.98;34.67;100078.59;5052154;28;811;-59
2021/09/09 11:31:04;;;;;;;;;;;;;;;26.47;34.96;100080.41;5051275;28;924;-59
2021/09/09 11:33:30;;;;;;;;;;;;;;;26.58;35.57;100091.03;5051117;28;834;-59
2021/09/09 11:36:01;;;;;;;;;;;;;;;26.79;34.91;100080.31;5050927;28;1465;-59
2021/09/09 11:38:32;;;;;;;;;;;;;;;27.46;33.96;100082.59;5051141;28;873;-59
2021/09/09 11:53:09;;;;;;;;;;;;;;;28.42;31.01;100051.31;5051258;28;692;-60
2021/09/09 11:55:37;;;;;;;;;;;;;;;27.76;32.38;100051.66;5050888;28;838;-59
2021/09/09 11:58:02;;;;;;;;;;;;;;;26.98;33.74;100055.91;5050948;28;874;-59
2021/09/09 12:00:29;;;;;;;;;;;;;;;26.35;35.41;100054.06;5050855;28;811;-59
2021/09/09 12:02:56;;;;;;;;;;;;;;;26.05;36.31;100051.56;5051615;28;1894;-59
2021/09/09 12:05:23;;;;;;;;;;;;;;;26.07;36.77;100056.69;5054513;28;822;-59
2021/09/09 12:07:51;;;;;;;;;;;;;;;27.04;33.97;100053.09;5054394;28;862;-59
2021/09/09 12:10:22;;;;;;;;;;;;;;;27.90;32.62;100042.13;5055165;28;834;-59
2021/09/09 12:12:55;;;;;;;;;;;;;;;27.89;31.77;100051.94;5054330;28;843;-59
2021/09/09 12:15:25;;;;;;;;;;;;;;;27.41;32.66;100037.97;5054472;28;887;-60
2021/09/09 12:17:52;;;;;;;;;;;;;;;27.07;32.39;100055.66;5036331;28;1318;-59
2021/09/09 12:20:25;;;;;;;;;;;;;;;26.62;33.57;100052.66;5054234;28;819;-59
2021/09/09 12:22:52;;;;;;;;;;;;;;;26.12;34.44;100053.16;5054340;28;1939;-59
2021/09/09 12:25:30;;;;;;;;;;;;;;;26.17;34.62;100049.56;5054095;28;794;-59
2021/09/09 12:28:08;;;;;;;;;;;;;;;26.21;35.01;100047.28;5054119;28;886;-59
2021/09/09 12:30:38;;;;;;;;;;;;;;;26.02;35.70;100038.41;5054054;28;885;-59
2021/09/09 12:33:25;;;;;;;;;;;;;;;25.92;36.11;100039.09;5036396;28;1422;-59
2021/09/09 12:36:02;;;;;;;;;;;;;;;25.95;36.49;100033.22;5053690;28;1393;-59
2021/09/09 12:38:30;;;;;;;;;;;;;;;25.75;36.91;100042.53;5035905;28;886;-59
2021/09/09 12:40:57;;;;;;;;;;;;;;;25.96;36.69;100036.81;5054038;28;870;-59
2021/09/09 12:43:31;;;;;;;;;;;;;;;26.11;35.95;100033.81;5035898;28;1993;-59
2021/09/09 12:45:59;;;;;;;;;;;;;;;26.08;36.45;100027.13;5053733;28;861;-59
2021/09/09 12:48:27;;;;;;;;;;;;;;;25.86;36.80;100034.16;5053750;28;783;-59
2021/09/09 12:50:55;;;;;;;;;;;;;;;25.57;36.67;100025.94;5053673;28;912;-59
2021/09/09 12:53:22;;;;;;;;;;;;;;;25.17;37.46;100027.59;5053669;28;850;-59
2021/09/09 12:55:49;;;;;;;;;;;;;;;24.89;37.83;100022.41;5036048;28;1240;-59
2021/09/09 12:58:15;;;;;;;;;;;;;;;24.85;38.33;100024.69;5053629;28;814;-59
2021/09/09 13:00:42;;;;;;;;;;;;;;;24.69;39.12;100014.75;5053726;28;870;-59
2021/09/09 13:03:08;;;;;;;;;;;;;;;24.54;39.54;100028.94;5053345;28;1965;-59
2021/09/09 13:08:43;;;;;;;;;;;;;;;24.32;40.34;100023.72;5053304;28;683;-59
2021/09/09 13:11:10;;;;;;;;;;;;;;;24.18;40.21;100027.41;5053275;28;874;-59
2021/09/09 13:13:37;;;;;;;;;;;;;;;24.14;41.15;100035.31;5053549;28;865;-59
2021/09/09 13:16:04;;;;;;;;;;;;;;;24.15;41.00;100023.50;5052924;28;883;-59
2021/09/09 13:18:31;;;;;;;;;;;;;;;24.29;40.70;100027.56;5053153;28;839;-59
2021/09/09 13:20:57;;;;;;;;;;;;;;;24.36;40.27;100020.72;5053062;28;870;-59
2021/09/09 13:23:24;;;;;;;;;;;;;;;24.37;40.22;100017.41;5052926;28;1902;-59
2021/09/09 13:25:51;;;;;;;;;;;;;;;24.50;39.68;100019.13;5052988;28;838;-59
2021/09/09 13:28:19;;;;;;;;;;;;;;;24.36;39.96;100013.00;5052954;28;822;-59
2021/09/09 13:30:45;;;;;;;;;;;;;;;24.21;40.87;100017.94;5052873;28;806;-59
2021/09/09 13:33:12;;;;;;;;;;;;;;;24.15;41.33;100023.50;5052816;28;783;-59
2021/09/09 13:35:38;;;;;;;;;;;;;;;24.13;40.83;100014.75;5052533;28;1422;-59
2021/09/09 13:38:05;;;;;;;;;;;;;;;24.33;40.45;100019.66;5052903;28;822;-59
2021/09/09 13:40:32;;;;;;;;;;;;;;;24.44;39.86;100021.84;5052704;28;889;-59
2021/09/09 13:43:00;;;;;;;;;;;;;;;24.69;39.61;100019.59;5034600;28;1914;-59
2021/09/09 13:45:26;;;;;;;;;;;;;;;24.76;39.55;100011.47;5052648;28;842;-59
2021/09/09 13:47:53;;;;;;;;;;;;;;;24.96;39.69;100021.97;5052525;28;854;-59
2021/09/09 13:50:20;;;;;;;;;;;;;;;24.95;39.20;100016.84;5052486;28;865;-59
2021/09/09 13:52:46;;;;;;;;;;;;;;;24.75;39.76;100020.44;5052544;28;857;-59
2021/09/09 13:55:13;;;;;;;;;;;;;;;24.73;39.94;100023.00;5034588;28;1378;-59
2021/09/09 13:57:39;;;;;;;;;;;;;;;24.57;39.16;100021.53;5052350;28;814;-59
2021/09/09 14:00:07;;;;;;;;;;;;;;;24.33;39.19;100019.66;5052348;28;858;-59
2021/09/09 14:02:34;;;;;;;;;;;;;;;24.24;39.00;100017.75;5052185;28;1882;-59
2021/09/09 14:05:01;;;;;;;;;;;;;;;24.10;39.61;100018.56;5052210;28;811;-59
2021/09/09 14:07:28;;;;;;;;;;;;;;;23.88;38.84;100021.06;5052157;28;799;-59
2021/09/09 14:09:55;;;;;;;;;;;;;;;23.97;38.88;100023.75;5052093;28;798;-59
2021/09/09 14:12:22;;;;;;;;;;;;;;;24.01;37.99;100022.28;5052131;28;799;-59
2021/09/09 14:14:48;;;;;;;;;;;;;;;23.97;38.75;100024.53;5052092;28;1010;-59
2021/09/09 14:29:26;;;;;;;;;;;;;;;24.06;40.41;100017.97;5052227;28;621;-59
2021/09/09 14:31:52;;;;;;;;;;;;;;;23.91;41.44;100009.53;5051850;28;802;-59
2021/09/09 14:34:19;;;;;;;;;;;;;;;23.69;42.30;100014.84;5051409;28;1203;-59
2021/09/09 14:36:46;;;;;;;;;;;;;;;23.43;43.35;100010.56;5051771;28;838;-59
2021/09/09 14:39:12;;;;;;;;;;;;;;;23.32;43.77;100004.75;5051748;28;838;-59
2021/09/09 14:41:39;;;;;;;;;;;;;;;23.45;43.20;99998.81;5051636;28;850;-59
2021/09/09 14:44:06;;;;;;;;;;;;;;;23.57;43.49;100003.34;5051620;28;1914;-59
2021/09/09 14:46:33;;;;;;;;;;;;;;;23.74;42.76;100000.78;5051629;28;861;-59
2021/09/09 14:48:59;;;;;;;;;;;;;;;23.79;42.00;100011.44;5051663;28;806;-59
2021/09/09 14:51:26;;;;;;;;;;;;;;;23.74;42.03;100009.25;5051516;28;881;-59
2021/09/09 14:53:53;;;;;;;;;;;;;;;23.58;42.56;100004.91;5051562;28;834;-59
2021/09/09 14:56:19;;;;;;;;;;;;;;;23.38;42.48;99999.94;5051430;28;928;-59
2021/09/09 14:58:46;;;;;;;;;;;;;;;23.51;42.20;99996.06;5051516;28;858;-59
2021/09/09 15:01:13;;;;;;;;;;;;;;;23.85;41.67;100003.03;5051421;28;822;-59
2021/09/09 15:03:40;;;;;;;;;;;;;;;23.94;40.66;100002.13;5051331;28;1882;-59
2021/09/09 15:06:07;;;;;;;;;;;;;;;23.76;40.78;100008.81;5051336;28;787;-59
2021/09/09 15:08:34;;;;;;;;;;;;;;;23.54;42.08;100000.75;5051319;28;861;-59
2021/09/09 15:11:01;;;;;;;;;;;;;;;23.57;42.43;100006.16;5051686;28;802;-59
2021/09/09 15:13:28;;;;;;;;;;;;;;;23.41;43.43;99993.34;5051246;28;867;-59
2021/09/09 15:15:54;;;;;;;;;;;;;;;23.27;44.09;100001.81;5051651;28;917;-59
2021/09/09 15:18:21;;;;;;;;;;;;;;;23.10;44.11;100001.50;5051276;28;869;-59
2021/09/09 15:20:50;;;;;;;;;;;;;;;22.80;44.44;100007.84;5051271;28;863;-59
2021/09/09 15:23:17;;;;;;;;;;;;;;;22.44;45.23;100008.91;5051122;28;1889;-59
2021/09/09 15:25:43;;;;;;;;;;;;;;;22.16;46.93;100017.47;5033345;28;1343;-59
2021/09/09 15:28:10;;;;;;;;;;;;;;;21.87;47.28;100009.69;5051146;28;802;-59
2021/09/09 15:30:36;;;;;;;;;;;;;;;21.66;48.77;100025.53;5051132;28;857;-59
2021/09/09 15:33:02;;;;;;;;;;;;;;;21.52;48.71;100020.56;5051184;28;838;-59
2021/09/09 15:35:29;;;;;;;;;;;;;;;21.46;49.29;100017.63;5032923;28;1404;-59
2021/09/09 15:37:57;;;;;;;;;;;;;;;21.41;49.75;100023.84;5052105;28;818;-59
2021/09/09 15:40:24;;;;;;;;;;;;;;;21.36;49.17;100022.47;5055021;28;865;-59
2021/09/09 15:42:54;;;;;;;;;;;;;;;21.26;49.24;100023.72;5054892;28;1973;-59
2021/09/09 15:45:21;;;;;;;;;;;;;;;21.24;48.99;100019.84;5054886;28;869;-59
2021/09/09 15:47:48;;;;;;;;;;;;;;;21.16;49.39;100013.75;5054884;28;803;-59
2021/09/09 15:50:16;;;;;;;;;;;;;;;21.07;49.84;100011.72;5054772;28;818;-59
2021/09/09 15:52:43;;;;;;;;;;;;;;;21.01;49.97;100010.78;5054815;28;810;-59
2021/09/09 15:55:10;;;;;;;;;;;;;;;20.95;50.28;100007.06;5054716;28;827;-59
2021/09/09 15:57:36;;;;;;;;;;;;;;;20.90;51.00;100019.69;5054679;28;815;-59
2021/09/09 16:00:05;;;;;;;;;;;;;;;20.80;51.31;100009.72;5054623;28;860;-59
2021/09/09 16:02:33;;;;;;;;;;;;;;;20.69;51.20;100012.97;5054535;28;1886;-59
2021/09/09 16:05:00;;;;;;;;;;;;;;;20.63;51.43;100014.84;5054518;28;850;-59
2021/09/09 16:07:26;;;;;;;;;;;;;;;20.58;51.91;100007.06;5054416;28;848;-59
2021/09/09 16:09:52;;;;;;;;;;;;;;;20.50;52.18;100009.34;5054486;28;830;-59
2021/09/09 16:12:19;;;;;;;;;;;;;;;20.43;52.54;100014.50;5054409;28;806;-59
2021/09/09 16:14:45;;;;;;;;;;;;;;;20.34;53.13;100013.25;5054383;28;923;-59
2021/09/09 16:17:12;;;;;;;;;;;;;;;20.24;54.05;100011.66;5054354;28;882;-59
2021/09/09 16:19:39;;;;;;;;;;;;;;;20.13;54.82;100011.31;5054208;28;867;-59
2021/09/09 16:22:05;;;;;;;;;;;;;;;19.98;55.82;100013.94;5054250;28;827;-59
2021/09/09 16:24:32;;;;;;;;;;;;;;;19.88;56.55;100009.53;5054064;28;1949;-59
2021/09/09 16:26:58;;;;;;;;;;;;;;;19.77;56.84;100021.16;5054343;28;854;-59
2021/09/09 16:29:25;;;;;;;;;;;;;;;19.65;57.69;100010.78;5054120;28;826;-59
2021/09/09 16:31:52;;;;;;;;;;;;;;;19.53;57.58;100010.44;5054167;28;830;-59
2021/09/09 16:34:18;;;;;;;;;;;;;;;19.41;58.03;100016.13;5053673;28;1493;-59
2021/09/09 16:36:45;;;;;;;;;;;;;;;19.27;58.65;100012.63;5036072;28;953;-59
2021/09/09 16:39:11;;;;;;;;;;;;;;;19.16;59.05;100009.41;5036083;28;1193;-59
2021/09/09 16:41:37;;;;;;;;;;;;;;;19.06;59.39;100005.00;5054068;28;856;-59
2021/09/09 16:44:04;;;;;;;;;;;;;;;18.95;59.64;100000.56;5053802;28;1973;-59
2021/09/09 16:46:30;;;;;;;;;;;;;;;18.82;60.02;100004.66;5054016;28;812;-59
2021/09/09 16:48:59;;;;;;;;;;;;;;;18.71;60.58;100005.00;5053503;28;834;-59
2021/09/09 16:51:26;;;;;;;;;;;;;;;18.61;60.77;100004.16;5053276;28;881;-59
2021/09/09 16:53:53;;;;;;;;;;;;;;;18.55;60.75;100009.53;5053974;28;799;-59
2021/09/09 16:56:24;;;;;;;;;;;;;;;18.51;60.94;100006.09;5053824;28;873;-59
2021/09/09 16:58:57;;;;;;;;;;;;;;;18.47;60.75;100013.81;5053622;28;842;-59
2021/09/09 17:01:25;;;;;;;;;;;;;;;18.44;60.90;100011.16;5053523;28;881;-59
2021/09/09 17:03:52;;;;;;;;;;;;;;;18.40;61.20;100008.47;5053409;28;1890;-59
2021/09/09 17:06:22;;;;;;;;;;;;;;;18.38;61.31;100012.97;5035532;28;1188;-59
2021/09/09 17:08:49;;;;;;;;;;;;;;;18.35;61.28;100014.66;5053583;28;866;-59
2021/09/09 17:11:15;;;;;;;;;;;;;;;18.33;61.75;100015.09;5053578;28;806;-59
2021/09/09 17:13:41;;;;;;;;;;;;;;;18.33;62.04;100017.13;5053222;28;842;-59
2021/09/09 17:16:08;;;;;;;;;;;;;;;18.32;62.31;100010.72;5053578;28;1001;-59
2021/09/09 17:21:37;;;;;;;;;;;;;;;18.31;63.17;100017.56;5053096;28;617;-59
2021/09/09 17:24:04;;;;;;;;;;;;;;;18.33;63.42;100020.69;5052993;28;1918;-59
2021/09/09 17:26:31;;;;;;;;;;;;;;;18.32;63.53;100024.69;5052974;28;924;-59
2021/09/09 17:28:57;;;;;;;;;;;;;;;18.29;63.63;100025.63;5053016;28;901;-59
2021/09/09 17:31:24;;;;;;;;;;;;;;;18.27;63.46;100021.72;5052884;28;834;-59
2021/09/09 17:33:51;;;;;;;;;;;;;;;18.22;63.79;100025.06;5034727;28;1237;-59
2021/09/09 17:36:17;;;;;;;;;;;;;;;18.17;64.25;100018.03;5052835;28;850;-59
2021/09/09 17:38:44;;;;;;;;;;;;;;;18.10;64.32;100024.63;5052794;28;885;-59
2021/09/09 17:41:12;;;;;;;;;;;;;;;18.02;64.64;100023.28;5053004;28;810;-59
2021/09/09 17:43:40;;;;;;;;;;;;;;;18.00;64.58;100022.19;5052546;28;1969;-59
2021/09/09 17:46:06;;;;;;;;;;;;;;;17.99;64.79;100024.19;5052636;28;811;-59
2021/09/09 17:48:33;;;;;;;;;;;;;;;17.99;64.72;100029.78;5052501;28;856;-59
2021/09/09 17:51:00;;;;;;;;;;;;;;;18.00;64.61;100028.56;5052593;28;870;-59
2021/09/09 17:53:26;;;;;;;;;;;;;;;18.03;64.68;100027.66;5052480;28;802;-59
2021/09/09 17:58:56;;;;;;;;;;;;;;;18.05;64.42;100036.41;5052970;28;664;-59
2021/09/09 18:01:23;;;;;;;;;;;;;;;18.06;64.43;100029.56;5034549;28;1283;-59
2021/09/09 18:03:49;;;;;;;;;;;;;;;18.05;64.45;100038.38;5052829;28;1878;-59
2021/09/09 18:06:15;;;;;;;;;;;;;;;18.07;64.43;100028.34;5052323;28;802;-59
2021/09/09 18:08:44;;;;;;;;;;;;;;;18.08;64.29;100035.47;5052476;28;822;-59
2021/09/09 18:14:13;;;;;;;;;;;;;;;18.02;64.69;100028.13;5052226;28;672;-59
2021/09/09 18:16:40;;;;;;;;;;;;;;;17.98;64.69;100030.22;5051973;28;1020;-59
2021/09/09 18:19:07;;;;;;;;;;;;;;;17.97;64.81;100023.09;5051940;28;889;-59
2021/09/09 18:21:34;;;;;;;;;;;;;;;17.95;64.91;100020.72;5052044;28;786;-59
2021/09/09 18:24:00;;;;;;;;;;;;;;;17.97;65.00;100031.47;5052083;28;1881;-59
2021/09/09 18:26:26;;;;;;;;;;;;;;;17.98;64.85;100027.44;5051934;28;925;-59
2021/09/09 18:28:52;;;;;;;;;;;;;;;17.99;64.80;100029.00;5051944;28;811;-59
2021/09/09 18:31:20;;;;;;;;;;;;;;;17.98;64.83;100031.00;5051867;28;917;-59
2021/09/09 18:33:46;;;;;;;;;;;;;;;17.96;64.87;100025.09;5051696;28;833;-59
2021/09/09 18:36:13;;;;;;;;;;;;;;;17.99;64.80;100031.78;5014235;28;1257;-59
2021/09/09 18:38:40;;;;;;;;;;;;;;;17.99;64.74;100029.00;5031839;28;811;-59
2021/09/09 18:41:06;;;;;;;;;;;;;;;17.99;64.46;100015.81;5031693;28;861;-59
2021/09/09 18:43:33;;;;;;;;;;;;;;;18.00;64.17;100025.75;5013921;28;1926;-59
2021/09/09 18:45:59;;;;;;;;;;;;;;;18.02;64.20;100026.09;5031616;28;870;-59
2021/09/09 18:48:26;;;;;;;;;;;;;;;18.01;64.14;100018.94;5031684;28;885;-59
2021/09/09 18:50:52;;;;;;;;;;;;;;;18.03;63.87;100013.69;5031654;28;846;-59
2021/09/09 18:53:19;;;;;;;;;;;;;;;18.02;63.89;100028.88;5031634;28;799;-59
2021/09/09 18:55:45;;;;;;;;;;;;;;;18.04;63.84;100032.03;5031613;28;787;-59
2021/09/09 18:58:12;;;;;;;;;;;;;;;18.08;63.65;100020.72;5031603;28;823;-59
2021/09/09 19:00:39;;;;;;;;;;;;;;;18.14;63.52;100024.53;5013859;28;1316;-59
2021/09/09 19:03:05;;;;;;;;;;;;;;;18.15;63.49;100015.66;5031291;28;1973;-59
2021/09/09 19:05:32;;;;;;;;;;;;;;;18.17;63.24;100020.81;5031548;28;823;-59
2021/09/09 19:07:58;;;;;;;;;;;;;;;18.18;63.11;100016.81;5013713;28;1343;-59
2021/09/09 19:10:27;;;;;;;;;;;;;;;18.16;63.09;100017.25;5031544;28;811;-59
2021/09/09 19:12:53;;;;;;;;;;;;;;;18.16;63.12;100017.25;5032506;28;910;-59
2021/09/09 19:15:21;;;;;;;;;;;;;;;18.17;63.05;100013.19;5035705;28;904;-59
2021/09/09 19:17:47;;;;;;;;;;;;;;;18.18;63.09;100019.59;5035492;28;834;-59
2021/09/09 19:20:14;;;;;;;;;;;;;;;18.17;63.03;100015.22;5035444;28;791;-59
2021/09/09 19:22:40;;;;;;;;;;;;;;;18.18;63.07;100022.41;5035285;28;2010;-59
2021/09/09 19:37:30;;;;;;;;;;;;;;;18.00;63.26;100025.75;5052001;28;1296;-59
2021/09/09 19:39:59;;;;;;;;;;;;;;;17.99;63.28;100021.41;5055222;28;814;-59
2021/09/09 19:42:26;;;;;;;;;;;;;;;18.00;63.22;100024.97;5037091;28;1216;-59
2021/09/09 19:44:53;;;;;;;;;;;;;;;17.98;63.43;100022.63;5054986;28;877;-59
2021/09/09 19:59:31;;;;;;;;;;;;;;;17.79;64.07;100021.59;5055035;28;625;-59
2021/09/09 20:01:57;;;;;;;;;;;;;;;17.82;64.12;100019.94;5054474;28;854;-59
2021/09/09 20:04:24;;;;;;;;;;;;;;;17.85;63.77;100031.00;5054557;28;1894;-59
2021/09/09 20:06:51;;;;;;;;;;;;;;;17.86;63.94;100018.63;5054542;28;850;-59
2021/09/09 20:21:28;;;;;;;;;;;;;;;17.92;63.77;100022.41;5054648;28;601;-59
2021/09/09 20:27:06;;;;;;;;;;;;;;;17.94;63.73;100017.16;5054921;28;609;-59
2021/09/09 20:29:33;;;;;;;;;;;;;;;17.98;63.62;100025.41;5054222;28;841;-59
2021/09/09 20:32:01;;;;;;;;;;;;;;;17.94;63.57;100022.75;5053979;28;854;-59